createdAt,value
2019-03-26T00:00:59.643Z,990.92
2019-03-26T00:01:59.634Z,990.90
2019-03-26T00:02:59.626Z,990.95
2019-03-26T00:04:05.777Z,991.01
2019-03-26T00:05:00.599Z,990.94
2019-03-26T00:05:59.596Z,991.04
2019-03-26T00:06:59.581Z,991.07
2019-03-26T00:07:59.569Z,991.03
2019-03-26T00:08:59.554Z,991.10
2019-03-26T00:09:59.543Z,990.96
2019-03-26T00:10:59.544Z,991.10
2019-03-26T00:11:59.523Z,991.01
2019-03-26T00:12:59.510Z,991.03
2019-03-26T00:13:59.502Z,991.26
2019-03-26T00:14:59.489Z,991.05
2019-03-26T00:15:59.478Z,991.25
2019-03-26T00:16:59.466Z,991.30
2019-03-26T00:17:59.471Z,991.19
2019-03-26T00:18:59.440Z,991.24
2019-03-26T00:19:59.434Z,991.35
2019-03-26T00:20:59.423Z,991.31
2019-03-26T00:21:59.412Z,991.47
2019-03-26T00:22:59.404Z,991.42
2019-03-26T00:23:59.383Z,991.45
2019-03-26T00:24:59.372Z,991.49
2019-03-26T00:25:59.367Z,991.52
2019-03-26T00:26:59.356Z,991.60
2019-03-26T00:27:59.343Z,991.41
2019-03-26T00:28:59.338Z,991.67
2019-03-26T00:29:59.320Z,991.69
2019-03-26T00:30:59.309Z,991.79
2019-03-26T00:31:59.298Z,991.65
2019-03-26T00:32:59.292Z,991.83
2019-03-26T00:33:59.281Z,991.94
2019-03-26T00:34:59.273Z,991.87
2019-03-26T00:35:59.258Z,991.89
2019-03-26T00:36:59.247Z,991.88
2019-03-26T00:37:59.229Z,991.92
2019-03-26T00:38:59.222Z,992.03
2019-03-26T00:39:59.217Z,992.11
2019-03-26T00:40:59.199Z,991.89
2019-03-26T00:41:59.189Z,992.10
2019-03-26T00:42:59.179Z,991.94
2019-03-26T00:43:59.168Z,992.07
2019-03-26T00:44:59.158Z,992.06
2019-03-26T00:45:59.145Z,992.21
2019-03-26T00:46:59.133Z,992.31
2019-03-26T00:47:59.123Z,991.96
2019-03-26T00:48:59.110Z,992.17
2019-03-26T00:49:59.099Z,992.24
2019-03-26T00:50:59.086Z,992.02
2019-03-26T00:51:59.077Z,992.15
2019-03-26T00:52:59.065Z,992.45
2019-03-26T00:53:59.055Z,992.28
2019-03-26T00:54:59.048Z,991.98
2019-03-26T00:55:59.032Z,992.33
2019-03-26T00:56:59.023Z,992.16
2019-03-26T00:58:01.471Z,992.26
2019-03-26T00:58:59.003Z,992.30
2019-03-26T00:59:58.997Z,992.21
2019-03-26T01:00:58.975Z,992.34
2019-03-26T01:01:58.967Z,991.97
2019-03-26T01:02:58.951Z,992.17
2019-03-26T01:03:58.945Z,992.28
2019-03-26T01:04:58.935Z,992.39
2019-03-26T01:05:58.923Z,992.33
2019-03-26T01:06:58.908Z,992.43
2019-03-26T01:07:58.900Z,992.22
2019-03-26T01:08:58.887Z,992.52
2019-03-26T01:09:58.874Z,992.21
2019-03-26T01:10:58.867Z,992.40
2019-03-26T01:11:58.862Z,992.45
2019-03-26T01:12:58.849Z,992.28
2019-03-26T01:13:58.830Z,992.34
2019-03-26T01:14:58.818Z,992.40
2019-03-26T01:15:58.815Z,992.35
2019-03-26T01:16:58.799Z,992.39
2019-03-26T01:17:58.790Z,992.14
2019-03-26T01:18:58.776Z,992.50
2019-03-26T01:19:58.762Z,992.41
2019-03-26T01:20:58.754Z,992.65
2019-03-26T01:21:58.739Z,992.45
2019-03-26T01:22:58.733Z,992.48
2019-03-26T01:23:58.723Z,992.67
2019-03-26T01:24:58.708Z,992.40
2019-03-26T01:25:58.698Z,992.51
2019-03-26T01:26:58.688Z,992.53
2019-03-26T01:27:58.678Z,992.61
2019-03-26T01:28:58.662Z,992.31
2019-03-26T01:29:58.653Z,992.56
2019-03-26T01:30:58.640Z,992.62
2019-03-26T01:31:58.629Z,992.57
2019-03-26T01:32:58.619Z,992.77
2019-03-26T01:33:58.610Z,992.56
2019-03-26T01:34:58.595Z,992.45
2019-03-26T01:35:58.589Z,992.40
2019-03-26T01:36:58.576Z,992.58
2019-03-26T01:37:58.564Z,992.43
2019-03-26T01:38:58.552Z,992.60
2019-03-26T01:39:58.544Z,992.40
2019-03-26T01:40:58.531Z,992.30
2019-03-26T01:41:58.515Z,992.18
2019-03-26T01:42:58.508Z,992.30
2019-03-26T01:43:58.497Z,992.35
2019-03-26T01:44:58.484Z,992.43
2019-03-26T01:45:58.477Z,992.32
2019-03-26T01:46:58.464Z,992.41
2019-03-26T01:47:58.458Z,992.10
2019-03-26T01:48:58.442Z,992.14
2019-03-26T01:49:58.433Z,992.22
2019-03-26T01:50:58.423Z,992.28
2019-03-26T01:51:58.410Z,992.10
2019-03-26T01:52:58.395Z,992.17
2019-03-26T01:53:58.386Z,992.24
2019-03-26T01:54:58.376Z,992.30
2019-03-26T01:55:58.363Z,992.15
2019-03-26T01:56:58.353Z,992.32
2019-03-26T01:57:58.343Z,992.45
2019-03-26T01:58:58.331Z,992.47
2019-03-26T01:59:58.323Z,992.24
2019-03-26T02:00:58.315Z,992.58
2019-03-26T02:01:58.300Z,992.47
2019-03-26T02:02:58.288Z,992.28
2019-03-26T02:03:58.276Z,992.33
2019-03-26T02:05:00.144Z,992.49
2019-03-26T02:05:58.258Z,992.51
2019-03-26T02:06:58.248Z,992.46
2019-03-26T02:07:58.231Z,992.60
2019-03-26T02:08:58.221Z,992.68
2019-03-26T02:09:58.212Z,992.49
2019-03-26T02:10:58.202Z,992.56
2019-03-26T02:11:58.190Z,992.45
2019-03-26T02:12:58.178Z,991.99
2019-03-26T02:13:58.166Z,992.66
2019-03-26T02:14:58.153Z,992.56
2019-03-26T02:15:58.146Z,992.48
2019-03-26T02:16:58.146Z,992.74
2019-03-26T02:17:58.124Z,992.78
2019-03-26T02:18:58.111Z,992.62
2019-03-26T02:19:58.145Z,992.86
2019-03-26T02:20:58.090Z,992.69
2019-03-26T02:21:58.081Z,992.78
2019-03-26T02:22:58.066Z,992.77
2019-03-26T02:23:58.060Z,992.79
2019-03-26T02:24:58.046Z,992.78
2019-03-26T02:25:58.034Z,992.55
2019-03-26T02:26:58.032Z,992.54
2019-03-26T02:27:58.014Z,992.70
2019-03-26T02:28:58.007Z,992.41
2019-03-26T02:29:57.994Z,992.62
2019-03-26T02:30:57.987Z,992.73
2019-03-26T02:31:57.974Z,992.54
2019-03-26T02:32:57.961Z,992.73
2019-03-26T02:33:57.959Z,992.67
2019-03-26T02:34:57.943Z,992.73
2019-03-26T02:35:57.930Z,992.83
2019-03-26T02:36:57.926Z,992.76
2019-03-26T02:37:57.910Z,992.82
2019-03-26T02:38:57.895Z,992.83
2019-03-26T02:39:57.883Z,992.58
2019-03-26T02:40:57.888Z,992.95
2019-03-26T02:41:57.862Z,992.99
2019-03-26T02:42:57.857Z,993.20
2019-03-26T02:43:57.841Z,992.89
2019-03-26T02:44:57.835Z,992.81
2019-03-26T02:45:57.825Z,993.00
2019-03-26T02:46:57.807Z,993.15
2019-03-26T02:47:57.796Z,993.28
2019-03-26T02:48:57.785Z,993.18
2019-03-26T02:49:57.773Z,993.12
2019-03-26T02:50:57.768Z,992.93
2019-03-26T02:51:57.749Z,992.99
2019-03-26T02:52:57.744Z,992.95
2019-03-26T02:53:57.731Z,993.17
2019-03-26T02:54:57.725Z,993.05
2019-03-26T02:55:57.708Z,993.30
2019-03-26T02:56:57.696Z,993.29
2019-03-26T02:57:57.690Z,993.12
2019-03-26T02:58:57.678Z,993.29
2019-03-26T02:59:57.662Z,993.14
2019-03-26T03:00:57.667Z,992.99
2019-03-26T03:01:57.647Z,993.51
2019-03-26T03:02:57.634Z,993.38
2019-03-26T03:03:57.617Z,993.39
2019-03-26T03:04:57.613Z,993.31
2019-03-26T03:05:57.607Z,993.21
2019-03-26T03:06:57.590Z,993.22
2019-03-26T03:07:57.581Z,993.41
2019-03-26T03:08:57.565Z,993.35
2019-03-26T03:09:57.553Z,993.22
2019-03-26T03:10:57.544Z,993.25
2019-03-26T03:11:57.539Z,993.32
2019-03-26T03:12:57.550Z,993.48
2019-03-26T03:13:57.515Z,993.29
2019-03-26T03:14:57.499Z,993.19
2019-03-26T03:15:57.489Z,993.24
2019-03-26T03:16:57.477Z,993.24
2019-03-26T03:17:57.474Z,993.07
2019-03-26T03:18:57.454Z,993.08
2019-03-26T03:19:57.444Z,993.14
2019-03-26T03:20:57.441Z,993.25
2019-03-26T03:21:57.426Z,993.31
2019-03-26T03:22:57.413Z,992.93
2019-03-26T03:23:57.400Z,993.20
2019-03-26T03:24:57.389Z,993.15
2019-03-26T03:25:57.383Z,993.26
2019-03-26T03:26:57.374Z,993.24
2019-03-26T03:27:57.364Z,993.23
2019-03-26T03:28:57.356Z,993.44
2019-03-26T03:29:57.335Z,993.24
2019-03-26T03:30:57.322Z,993.11
2019-03-26T03:31:57.313Z,993.36
2019-03-26T03:32:57.300Z,992.58
2019-03-26T03:33:57.293Z,993.25
2019-03-26T03:34:57.278Z,993.13
2019-03-26T03:35:57.269Z,993.51
2019-03-26T03:36:57.257Z,993.30
2019-03-26T03:37:57.245Z,993.27
2019-03-26T03:38:57.233Z,993.62
2019-03-26T03:39:57.235Z,993.51
2019-03-26T03:40:57.218Z,993.57
2019-03-26T03:41:57.211Z,993.40
2019-03-26T03:42:57.195Z,993.86
2019-03-26T03:43:57.177Z,993.34
2019-03-26T03:44:57.168Z,993.43
2019-03-26T03:45:57.158Z,993.48
2019-03-26T03:46:57.147Z,993.42
2019-03-26T03:47:57.137Z,993.34
2019-03-26T03:48:57.129Z,993.41
2019-03-26T03:49:57.118Z,993.35
2019-03-26T03:50:57.102Z,993.60
2019-03-26T03:51:57.090Z,993.51
2019-03-26T03:52:57.078Z,993.70
2019-03-26T03:53:57.081Z,993.56
2019-03-26T03:54:57.059Z,993.28
2019-03-26T03:55:57.048Z,993.55
2019-03-26T03:56:57.037Z,993.39
2019-03-26T03:57:57.025Z,993.60
2019-03-26T03:58:57.014Z,993.71
2019-03-26T03:59:57.003Z,993.66
2019-03-26T04:00:56.992Z,993.55
2019-03-26T04:01:56.982Z,993.59
2019-03-26T04:02:56.972Z,993.80
2019-03-26T04:03:56.958Z,993.69
2019-03-26T04:04:56.944Z,993.59
2019-03-26T04:06:09.057Z,993.60
2019-03-26T04:06:57.921Z,993.45
2019-03-26T04:07:56.914Z,993.24
2019-03-26T04:08:56.912Z,993.63
2019-03-26T04:09:56.889Z,993.43
2019-03-26T04:10:56.878Z,993.39
2019-03-26T04:11:56.870Z,993.59
2019-03-26T04:12:56.862Z,993.47
2019-03-26T04:13:56.847Z,993.48
2019-03-26T04:14:56.841Z,993.53
2019-03-26T04:15:56.830Z,993.40
2019-03-26T04:16:56.812Z,993.52
2019-03-26T04:17:56.802Z,993.46
2019-03-26T04:18:56.797Z,993.30
2019-03-26T04:19:56.779Z,993.39
2019-03-26T04:20:56.783Z,993.41
2019-03-26T04:21:56.758Z,993.48
2019-03-26T04:22:56.749Z,993.70
2019-03-26T04:23:56.732Z,993.39
2019-03-26T04:24:56.727Z,993.67
2019-03-26T04:25:56.715Z,993.70
2019-03-26T04:26:56.701Z,993.70
2019-03-26T04:27:56.691Z,993.96
2019-03-26T04:28:56.683Z,993.69
2019-03-26T04:29:56.667Z,993.71
2019-03-26T04:30:56.660Z,993.96
2019-03-26T04:31:56.647Z,993.71
2019-03-26T04:32:56.672Z,993.90
2019-03-26T04:33:56.625Z,993.73
2019-03-26T04:34:56.616Z,993.93
2019-03-26T04:35:56.605Z,993.38
2019-03-26T04:36:56.593Z,993.95
2019-03-26T04:37:56.581Z,993.62
2019-03-26T04:38:56.572Z,993.73
2019-03-26T04:39:56.562Z,993.98
2019-03-26T04:40:56.548Z,993.74
2019-03-26T04:41:56.537Z,993.93
2019-03-26T04:42:56.528Z,993.77
2019-03-26T04:43:56.515Z,993.87
2019-03-26T04:44:56.510Z,994.06
2019-03-26T04:45:56.492Z,993.92
2019-03-26T04:46:56.495Z,994.09
2019-03-26T04:47:56.470Z,993.99
2019-03-26T04:48:56.456Z,993.98
2019-03-26T04:49:56.441Z,994.03
2019-03-26T04:50:56.434Z,993.99
2019-03-26T04:51:56.423Z,994.09
2019-03-26T04:52:56.415Z,994.07
2019-03-26T04:53:56.402Z,993.97
2019-03-26T04:54:56.387Z,994.06
2019-03-26T04:55:56.382Z,994.12
2019-03-26T04:56:56.366Z,994.23
2019-03-26T04:57:56.358Z,994.16
2019-03-26T04:58:56.348Z,994.30
2019-03-26T04:59:56.333Z,994.12
2019-03-26T05:00:56.323Z,994.16
2019-03-26T05:01:56.316Z,994.01
2019-03-26T05:02:56.301Z,993.99
2019-03-26T05:03:56.293Z,994.01
2019-03-26T05:04:56.279Z,994.05
2019-03-26T05:05:56.265Z,993.99
2019-03-26T05:06:56.258Z,994.06
2019-03-26T05:07:56.245Z,993.73
2019-03-26T05:08:56.235Z,993.93
2019-03-26T05:09:56.222Z,993.73
2019-03-26T05:10:56.212Z,994.01
2019-03-26T05:11:56.219Z,994.23
2019-03-26T05:12:56.207Z,994.12
2019-03-26T05:13:56.196Z,993.87
2019-03-26T05:14:56.184Z,994.07
2019-03-26T05:15:56.175Z,993.88
2019-03-26T05:16:56.164Z,993.98
2019-03-26T05:17:56.832Z,994.04
2019-03-26T05:18:56.143Z,994.00
2019-03-26T05:19:56.110Z,994.13
2019-03-26T05:20:56.109Z,994.14
2019-03-26T05:21:56.093Z,994.19
2019-03-26T05:22:56.081Z,994.07
2019-03-26T05:23:56.066Z,993.98
2019-03-26T05:24:56.061Z,993.98
2019-03-26T05:25:56.041Z,993.86
2019-03-26T05:26:56.031Z,994.06
2019-03-26T05:27:56.025Z,994.05
2019-03-26T05:28:56.007Z,993.95
2019-03-26T05:29:55.998Z,994.03
2019-03-26T05:30:55.984Z,994.10
2019-03-26T05:31:55.992Z,994.06
2019-03-26T05:32:55.968Z,994.00
2019-03-26T05:33:55.954Z,993.96
2019-03-26T05:34:55.945Z,994.01
2019-03-26T05:35:55.931Z,993.90
2019-03-26T05:36:55.920Z,994.21
2019-03-26T05:37:55.914Z,994.06
2019-03-26T05:38:55.899Z,993.93
2019-03-26T05:39:55.889Z,994.17
2019-03-26T05:40:55.875Z,994.10
2019-03-26T05:41:55.867Z,993.97
2019-03-26T05:42:55.854Z,994.13
2019-03-26T05:43:55.844Z,994.12
2019-03-26T05:44:55.834Z,994.00
2019-03-26T05:45:55.819Z,994.26
2019-03-26T05:46:55.817Z,994.01
2019-03-26T05:47:55.799Z,994.12
2019-03-26T05:48:55.785Z,994.11
2019-03-26T05:49:55.774Z,993.90
2019-03-26T05:50:55.762Z,994.03
2019-03-26T05:51:55.752Z,994.06
2019-03-26T05:52:55.742Z,994.09
2019-03-26T05:53:55.729Z,994.15
2019-03-26T05:54:55.720Z,993.96
2019-03-26T05:55:55.713Z,994.13
2019-03-26T05:56:55.699Z,994.00
2019-03-26T05:57:55.690Z,994.11
2019-03-26T05:58:55.675Z,994.02
2019-03-26T05:59:55.660Z,994.11
2019-03-26T06:00:55.653Z,994.04
2019-03-26T06:01:55.663Z,994.02
2019-03-26T06:02:55.633Z,994.11
2019-03-26T06:03:55.619Z,994.02
2019-03-26T06:04:55.606Z,994.06
2019-03-26T06:05:55.597Z,994.25
2019-03-26T06:07:04.687Z,994.24
2019-03-26T06:07:56.583Z,993.98
2019-03-26T06:08:55.568Z,994.00
2019-03-26T06:09:55.555Z,994.09
2019-03-26T06:10:55.546Z,994.08
2019-03-26T06:11:55.539Z,993.85
2019-03-26T06:12:55.524Z,994.02
2019-03-26T06:13:55.514Z,994.14
2019-03-26T06:14:55.503Z,994.22
2019-03-26T06:15:55.492Z,994.15
2019-03-26T06:16:55.481Z,994.08
2019-03-26T06:17:57.580Z,994.00
2019-03-26T06:18:55.457Z,994.13
2019-03-26T06:19:55.442Z,993.82
2019-03-26T06:20:55.432Z,993.83
2019-03-26T06:21:55.419Z,993.97
2019-03-26T06:22:55.414Z,993.98
2019-03-26T06:23:55.398Z,993.92
2019-03-26T06:24:55.391Z,993.89
2019-03-26T06:25:55.404Z,993.91
2019-03-26T06:26:55.372Z,993.99
2019-03-26T06:27:55.359Z,993.80
2019-03-26T06:28:55.351Z,993.99
2019-03-26T06:29:55.339Z,994.05
2019-03-26T06:30:55.329Z,993.92
2019-03-26T06:31:55.317Z,993.90
2019-03-26T06:32:55.306Z,993.95
2019-03-26T06:33:55.292Z,993.95
2019-03-26T06:34:55.277Z,994.07
2019-03-26T06:35:55.268Z,994.10
2019-03-26T06:36:55.255Z,993.76
2019-03-26T06:37:55.247Z,993.81
2019-03-26T06:38:55.242Z,993.92
2019-03-26T06:39:58.262Z,993.85
2019-03-26T06:40:55.214Z,994.02
2019-03-26T06:41:55.206Z,993.90
2019-03-26T06:42:55.189Z,993.76
2019-03-26T06:43:55.194Z,993.90
2019-03-26T06:44:55.168Z,993.94
2019-03-26T06:45:55.156Z,993.78
2019-03-26T06:46:55.151Z,993.70
2019-03-26T06:47:55.141Z,993.62
2019-03-26T06:48:55.127Z,993.77
2019-03-26T06:49:55.120Z,993.80
2019-03-26T06:50:55.106Z,993.87
2019-03-26T06:51:55.099Z,993.65
2019-03-26T06:52:55.076Z,993.68
2019-03-26T06:53:55.072Z,993.62
2019-03-26T06:54:55.064Z,993.76
2019-03-26T06:55:55.047Z,994.03
2019-03-26T06:56:55.054Z,993.66
2019-03-26T06:57:55.024Z,994.07
2019-03-26T06:58:55.013Z,993.99
2019-03-26T06:59:54.998Z,993.95
2019-03-26T07:00:54.998Z,994.21
2019-03-26T07:01:54.980Z,993.76
2019-03-26T07:02:54.967Z,993.94
2019-03-26T07:03:54.960Z,993.82
2019-03-26T07:04:54.944Z,994.06
2019-03-26T07:05:54.933Z,994.07
2019-03-26T07:06:57.702Z,993.60
2019-03-26T07:07:54.911Z,994.00
2019-03-26T07:08:54.897Z,994.03
2019-03-26T07:09:54.889Z,993.80
2019-03-26T07:10:54.879Z,993.89
2019-03-26T07:11:54.867Z,994.05
2019-03-26T07:12:54.859Z,994.10
2019-03-26T07:13:54.846Z,994.01
2019-03-26T07:14:54.837Z,994.15
2019-03-26T07:15:54.825Z,994.27
2019-03-26T07:16:54.807Z,994.30
2019-03-26T07:17:54.803Z,993.94
2019-03-26T07:18:54.785Z,994.08
2019-03-26T07:19:54.780Z,994.08
2019-03-26T07:20:54.800Z,994.37
2019-03-26T07:21:54.836Z,994.25
2019-03-26T07:22:54.753Z,994.32
2019-03-26T07:23:54.753Z,994.41
2019-03-26T07:24:54.724Z,994.48
2019-03-26T07:25:54.714Z,994.23
2019-03-26T07:26:54.702Z,994.61
2019-03-26T07:27:54.687Z,994.50
2019-03-26T07:28:56.706Z,994.40
2019-03-26T07:29:54.663Z,994.17
2019-03-26T07:30:54.664Z,994.15
2019-03-26T07:31:54.644Z,994.42
2019-03-26T07:32:54.645Z,994.52
2019-03-26T07:33:54.624Z,994.48
2019-03-26T07:34:54.614Z,994.39
2019-03-26T07:35:54.598Z,994.37
2019-03-26T07:36:54.595Z,994.61
2019-03-26T07:37:54.580Z,994.31
2019-03-26T07:38:54.616Z,994.42
2019-03-26T07:39:54.566Z,994.80
2019-03-26T07:40:54.546Z,994.70
2019-03-26T07:41:54.533Z,994.62
2019-03-26T07:42:54.523Z,994.60
2019-03-26T07:43:54.511Z,994.60
2019-03-26T07:44:54.500Z,994.61
2019-03-26T07:45:54.487Z,994.75
2019-03-26T07:46:54.478Z,994.66
2019-03-26T07:47:54.466Z,994.49
2019-03-26T07:48:54.453Z,994.71
2019-03-26T07:49:54.441Z,994.77
2019-03-26T07:50:54.435Z,994.88
2019-03-26T07:51:54.425Z,994.87
2019-03-26T07:52:54.410Z,994.84
2019-03-26T07:53:55.154Z,994.70
2019-03-26T07:54:54.396Z,994.72
2019-03-26T07:55:54.384Z,994.84
2019-03-26T07:56:54.364Z,994.81
2019-03-26T07:57:54.355Z,994.83
2019-03-26T07:58:54.341Z,994.87
2019-03-26T07:59:54.334Z,994.93
2019-03-26T08:00:54.323Z,995.23
2019-03-26T08:01:54.307Z,994.90
2019-03-26T08:02:54.300Z,994.95
2019-03-26T08:03:54.319Z,995.04
2019-03-26T08:04:54.331Z,995.07
2019-03-26T08:05:54.361Z,994.83
2019-03-26T08:06:54.253Z,994.92
2019-03-26T08:07:58.547Z,994.85
2019-03-26T08:08:54.258Z,994.89
2019-03-26T08:09:54.228Z,994.86
2019-03-26T08:10:54.270Z,994.77
2019-03-26T08:11:54.211Z,994.69
2019-03-26T08:12:54.230Z,994.95
2019-03-26T08:13:54.231Z,994.98
2019-03-26T08:14:54.201Z,994.89
2019-03-26T08:15:54.179Z,994.76
2019-03-26T08:16:54.151Z,994.98
2019-03-26T08:17:54.200Z,994.76
2019-03-26T08:18:54.196Z,994.97
2019-03-26T08:19:54.120Z,994.89
2019-03-26T08:20:57.150Z,995.05
2019-03-26T08:21:54.109Z,995.06
2019-03-26T08:22:54.089Z,994.68
2019-03-26T08:23:54.069Z,995.02
2019-03-26T08:24:54.058Z,995.07
2019-03-26T08:25:54.071Z,995.12
2019-03-26T08:26:54.074Z,995.01
2019-03-26T08:27:54.051Z,995.17
2019-03-26T08:28:54.042Z,995.00
2019-03-26T08:29:54.019Z,995.23
2019-03-26T08:30:53.991Z,995.29
2019-03-26T08:31:54.426Z,995.10
2019-03-26T08:32:53.991Z,994.96
2019-03-26T08:33:53.967Z,994.99
2019-03-26T08:34:53.980Z,995.00
2019-03-26T08:35:53.936Z,995.02
2019-03-26T08:36:53.924Z,995.09
2019-03-26T08:37:53.922Z,995.32
2019-03-26T08:38:53.928Z,995.09
2019-03-26T08:39:53.925Z,995.01
2019-03-26T08:40:53.951Z,995.15
2019-03-26T08:41:53.889Z,995.10
2019-03-26T08:42:53.875Z,994.77
2019-03-26T08:43:53.846Z,995.22
2019-03-26T08:44:53.926Z,994.52
2019-03-26T08:45:53.827Z,995.37
2019-03-26T08:46:53.841Z,995.28
2019-03-26T08:47:53.847Z,995.24
2019-03-26T08:48:53.793Z,995.34
2019-03-26T08:49:53.786Z,995.33
2019-03-26T08:50:53.777Z,995.07
2019-03-26T08:51:53.756Z,995.43
2019-03-26T08:52:53.749Z,995.33
2019-03-26T08:53:53.737Z,995.19
2019-03-26T08:54:53.733Z,995.44
2019-03-26T08:55:53.721Z,995.32
2019-03-26T08:56:53.703Z,995.49
2019-03-26T08:57:53.686Z,995.21
2019-03-26T08:58:53.747Z,995.20
2019-03-26T08:59:53.673Z,995.27
2019-03-26T09:00:53.666Z,995.22
2019-03-26T09:01:53.645Z,995.25
2019-03-26T09:02:53.645Z,995.33
2019-03-26T09:03:53.664Z,995.38
2019-03-26T09:04:53.638Z,995.32
2019-03-26T09:05:53.640Z,995.27
2019-03-26T09:06:53.587Z,995.60
2019-03-26T09:07:53.579Z,995.65
2019-03-26T09:08:53.571Z,995.44
2019-03-26T09:09:53.589Z,995.52
2019-03-26T09:10:53.549Z,995.58
2019-03-26T09:11:53.543Z,995.58
2019-03-26T09:12:53.522Z,995.46
2019-03-26T09:13:53.527Z,995.59
2019-03-26T09:14:53.499Z,995.53
2019-03-26T09:15:53.489Z,995.48
2019-03-26T09:16:53.496Z,995.36
2019-03-26T09:17:53.490Z,995.63
2019-03-26T09:18:53.473Z,995.75
2019-03-26T09:19:53.457Z,995.58
2019-03-26T09:20:53.458Z,995.72
2019-03-26T09:21:53.419Z,995.72
2019-03-26T09:22:53.470Z,995.74
2019-03-26T09:23:53.542Z,995.58
2019-03-26T09:24:53.443Z,995.57
2019-03-26T09:25:53.540Z,995.61
2019-03-26T09:26:53.398Z,995.86
2019-03-26T09:27:53.437Z,995.91
2019-03-26T09:28:53.488Z,995.87
2019-03-26T09:29:53.401Z,996.02
2019-03-26T09:30:53.371Z,995.79
2019-03-26T09:31:53.321Z,995.80
2019-03-26T09:32:53.308Z,995.77
2019-03-26T09:33:53.401Z,995.77
2019-03-26T09:34:53.459Z,995.42
2019-03-26T09:35:53.279Z,995.83
2019-03-26T09:36:53.295Z,995.83
2019-03-26T09:37:53.298Z,996.07
2019-03-26T09:38:53.245Z,996.10
2019-03-26T09:39:53.301Z,995.87
2019-03-26T09:40:53.220Z,995.82
2019-03-26T09:41:53.222Z,995.70
2019-03-26T09:42:53.216Z,995.86
2019-03-26T09:43:53.195Z,995.82
2019-03-26T09:44:56.419Z,996.14
2019-03-26T09:45:53.184Z,995.95
2019-03-26T09:46:53.158Z,996.17
2019-03-26T09:47:53.141Z,996.19
2019-03-26T09:48:53.134Z,996.13
2019-03-26T09:49:53.132Z,995.62
2019-03-26T09:50:53.121Z,995.95
2019-03-26T09:51:53.353Z,996.21
2019-03-26T09:52:53.118Z,996.17
2019-03-26T09:53:53.087Z,996.18
2019-03-26T09:54:53.069Z,996.09
2019-03-26T09:55:53.060Z,996.11
2019-03-26T09:56:53.062Z,995.99
2019-03-26T09:57:53.062Z,996.05
2019-03-26T09:58:53.058Z,996.11
2019-03-26T09:59:53.050Z,996.20
2019-03-26T10:00:53.066Z,996.06
2019-03-26T10:01:53.002Z,996.09
2019-03-26T10:02:52.986Z,995.86
2019-03-26T10:03:52.977Z,996.08
2019-03-26T10:04:52.975Z,996.01
2019-03-26T10:05:52.943Z,996.01
2019-03-26T10:06:52.950Z,996.25
2019-03-26T10:07:53.047Z,996.32
2019-03-26T10:08:53.076Z,996.12
2019-03-26T10:09:52.898Z,996.23
2019-03-26T10:10:52.888Z,996.43
2019-03-26T10:11:52.871Z,996.17
2019-03-26T10:12:52.863Z,996.31
2019-03-26T10:13:52.852Z,995.88
2019-03-26T10:14:52.843Z,996.30
2019-03-26T10:15:52.837Z,996.16
2019-03-26T10:16:52.821Z,995.94
2019-03-26T10:17:52.869Z,996.31
2019-03-26T10:18:52.808Z,996.32
2019-03-26T10:19:52.804Z,996.19
2019-03-26T10:20:52.782Z,996.12
2019-03-26T10:21:52.768Z,996.05
2019-03-26T10:22:52.756Z,995.95
2019-03-26T10:23:52.748Z,996.33
2019-03-26T10:24:52.742Z,996.30
2019-03-26T10:25:52.728Z,996.22
2019-03-26T10:26:52.714Z,996.29
2019-03-26T10:27:52.731Z,996.47
2019-03-26T10:28:52.696Z,996.63
2019-03-26T10:29:52.688Z,996.34
2019-03-26T10:30:52.673Z,996.17
2019-03-26T10:31:52.662Z,996.17
2019-03-26T10:32:52.653Z,996.47
2019-03-26T10:33:52.702Z,996.17
2019-03-26T10:34:52.642Z,996.18
2019-03-26T10:35:52.631Z,996.14
2019-03-26T10:36:52.631Z,996.33
2019-03-26T10:37:52.625Z,996.21
2019-03-26T10:39:05.106Z,996.21
2019-03-26T10:39:53.575Z,996.59
2019-03-26T10:40:52.563Z,996.64
2019-03-26T10:41:52.586Z,996.34
2019-03-26T10:42:52.540Z,996.09
2019-03-26T10:43:52.554Z,996.37
2019-03-26T10:44:52.552Z,996.61
2019-03-26T10:45:52.523Z,996.39
2019-03-26T10:46:52.526Z,996.40
2019-03-26T10:47:52.637Z,996.82
2019-03-26T10:48:52.508Z,996.61
2019-03-26T10:49:52.506Z,996.64
2019-03-26T10:50:52.457Z,996.61
2019-03-26T10:51:52.457Z,996.75
2019-03-26T10:52:52.734Z,996.68
2019-03-26T10:53:52.448Z,996.48
2019-03-26T10:54:52.419Z,996.66
2019-03-26T10:55:52.422Z,996.54
2019-03-26T10:56:52.402Z,996.61
2019-03-26T10:57:52.383Z,996.58
2019-03-26T10:58:52.377Z,996.63
2019-03-26T10:59:52.371Z,996.69
2019-03-26T11:00:52.378Z,996.61
2019-03-26T11:01:52.344Z,996.71
2019-03-26T11:02:54.106Z,996.63
2019-03-26T11:03:52.319Z,996.78
2019-03-26T11:04:52.308Z,996.78
2019-03-26T11:05:52.344Z,996.45
2019-03-26T11:06:52.297Z,996.52
2019-03-26T11:07:52.278Z,997.08
2019-03-26T11:08:52.271Z,996.77
2019-03-26T11:09:52.259Z,996.40
2019-03-26T11:10:52.244Z,996.83
2019-03-26T11:11:52.239Z,996.55
2019-03-26T11:12:52.224Z,996.76
2019-03-26T11:13:52.217Z,996.66
2019-03-26T11:14:52.208Z,996.72
2019-03-26T11:15:52.195Z,996.84
2019-03-26T11:16:52.183Z,996.61
2019-03-26T11:17:52.173Z,996.58
2019-03-26T11:18:52.160Z,996.74
2019-03-26T11:19:52.151Z,996.40
2019-03-26T11:21:02.276Z,996.59
2019-03-26T11:21:53.279Z,996.81
2019-03-26T11:22:52.120Z,996.71
2019-03-26T11:23:52.113Z,996.52
2019-03-26T11:24:52.105Z,996.71
2019-03-26T11:25:52.090Z,996.50
2019-03-26T11:26:52.081Z,996.49
2019-03-26T11:27:52.076Z,996.57
2019-03-26T11:28:52.063Z,996.57
2019-03-26T11:29:52.046Z,996.86
2019-03-26T11:30:52.042Z,996.73
2019-03-26T11:31:52.040Z,996.62
2019-03-26T11:32:52.028Z,996.77
2019-03-26T11:33:52.023Z,996.70
2019-03-26T11:34:52.010Z,996.82
2019-03-26T11:35:51.989Z,996.60
2019-03-26T11:36:52.036Z,996.52
2019-03-26T11:37:51.969Z,996.86
2019-03-26T11:38:51.954Z,996.61
2019-03-26T11:39:51.954Z,996.44
2019-03-26T11:40:51.965Z,996.27
2019-03-26T11:41:51.936Z,996.61
2019-03-26T11:42:52.028Z,996.66
2019-03-26T11:43:51.912Z,996.64
2019-03-26T11:44:51.906Z,996.42
2019-03-26T11:45:51.902Z,996.96
2019-03-26T11:46:51.901Z,996.24
2019-03-26T11:47:51.878Z,996.80
2019-03-26T11:48:51.854Z,996.81
2019-03-26T11:49:51.856Z,996.75
2019-03-26T11:50:51.858Z,996.79
2019-03-26T11:51:51.831Z,997.01
2019-03-26T11:52:51.807Z,996.78
2019-03-26T11:53:51.798Z,996.80
2019-03-26T11:54:51.788Z,996.80
2019-03-26T11:55:51.805Z,996.79
2019-03-26T11:56:51.890Z,997.07
2019-03-26T11:57:51.755Z,996.52
2019-03-26T11:58:51.788Z,996.84
2019-03-26T11:59:51.738Z,996.72
2019-03-26T12:00:51.725Z,996.94
2019-03-26T12:01:52.587Z,997.11
2019-03-26T12:02:51.705Z,996.49
2019-03-26T12:03:51.711Z,996.62
2019-03-26T12:04:51.704Z,996.73
2019-03-26T12:05:51.756Z,996.81
2019-03-26T12:06:51.676Z,996.59
2019-03-26T12:07:51.658Z,996.82
2019-03-26T12:08:51.643Z,996.81
2019-03-26T12:09:51.675Z,996.93
2019-03-26T12:10:51.620Z,996.85
2019-03-26T12:11:51.627Z,996.57
2019-03-26T12:12:51.618Z,996.80
2019-03-26T12:13:51.590Z,996.89
2019-03-26T12:14:52.034Z,996.81
2019-03-26T12:15:51.565Z,996.97
2019-03-26T12:16:51.554Z,996.86
2019-03-26T12:17:51.552Z,997.07
2019-03-26T12:18:51.534Z,997.05
2019-03-26T12:19:51.527Z,996.91
2019-03-26T12:20:51.510Z,996.84
2019-03-26T12:21:51.499Z,996.90
2019-03-26T12:22:51.490Z,996.82
2019-03-26T12:23:51.478Z,996.98
2019-03-26T12:24:51.467Z,996.96
2019-03-26T12:25:51.458Z,997.03
2019-03-26T12:26:51.445Z,996.92
2019-03-26T12:27:51.442Z,996.90
2019-03-26T12:28:51.431Z,997.01